createdAt,value
2022-12-03T00:00:14.097Z,17.52
2022-12-03T00:02:41.654Z,16.05
2022-12-03T00:05:08.715Z,16.70
2022-12-03T00:07:35.125Z,17.33
2022-12-03T00:10:01.554Z,15.95
2022-12-03T00:12:27.983Z,16.88
2022-12-03T00:14:54.633Z,16.80
2022-12-03T00:17:21.128Z,15.95
2022-12-03T00:19:47.452Z,15.70
2022-12-03T00:22:13.825Z,15.75
2022-12-03T00:24:40.194Z,16.45
2022-12-03T00:27:06.652Z,16.55
2022-12-03T00:29:33.154Z,16.02
2022-12-03T00:31:59.550Z,16.45
2022-12-03T00:34:25.873Z,16.55
2022-12-03T00:36:52.198Z,16.35
2022-12-03T00:39:18.621Z,16.85
2022-12-03T00:41:44.945Z,15.68
2022-12-03T00:44:12.092Z,16.55
2022-12-03T00:46:38.504Z,14.60
2022-12-03T00:49:05.105Z,15.77
2022-12-03T00:51:31.537Z,16.38
2022-12-03T00:53:57.828Z,15.95
2022-12-03T00:56:24.151Z,15.13
2022-12-03T00:58:50.638Z,16.10
2022-12-03T01:01:16.997Z,16.02
2022-12-03T01:03:43.334Z,15.23
2022-12-03T01:06:09.706Z,15.68
2022-12-03T01:08:36.069Z,14.38
2022-12-03T01:11:02.413Z,15.75
2022-12-03T01:13:28.784Z,14.52
2022-12-03T01:15:55.290Z,15.48
2022-12-03T01:18:21.687Z,14.40
2022-12-03T01:20:48.065Z,14.77
2022-12-03T01:23:14.391Z,15.02
2022-12-03T01:25:40.828Z,15.27
2022-12-03T01:28:07.220Z,14.68
2022-12-03T01:30:53.605Z,14.65
2022-12-03T01:33:19.983Z,15.75
2022-12-03T01:35:46.330Z,14.32
2022-12-03T01:38:12.635Z,14.43
2022-12-03T01:40:39.098Z,15.23
2022-12-03T01:43:05.464Z,14.55
2022-12-03T01:45:32.024Z,15.48
2022-12-03T01:47:58.407Z,13.88
2022-12-03T01:50:31.744Z,14.75
2022-12-03T01:53:00.902Z,15.25
2022-12-03T01:55:27.480Z,14.27
2022-12-03T01:57:56.996Z,14.30
2022-12-03T02:00:26.900Z,14.23
2022-12-03T02:02:59.703Z,14.60
2022-12-03T02:05:31.602Z,14.85
2022-12-03T02:07:58.569Z,14.40
2022-12-03T02:10:34.241Z,14.05
2022-12-03T02:13:07.501Z,14.75
2022-12-03T02:15:35.157Z,14.98
2022-12-03T02:18:02.029Z,14.32
2022-12-03T02:20:30.429Z,15.52
2022-12-03T02:23:08.873Z,15.45
2022-12-03T02:25:36.711Z,15.38
2022-12-03T02:28:05.736Z,15.48
2022-12-03T02:30:32.447Z,14.43
2022-12-03T02:32:59.647Z,14.55
2022-12-03T02:35:30.109Z,14.63
2022-12-03T02:38:02.181Z,14.70
2022-12-03T02:40:32.704Z,15.18
2022-12-03T02:43:02.299Z,15.30
2022-12-03T02:45:39.269Z,14.73
2022-12-03T02:48:12.849Z,14.90
2022-12-03T02:50:42.283Z,15.90
2022-12-03T02:53:13.805Z,15.75
2022-12-03T02:55:41.266Z,14.88
2022-12-03T02:58:07.646Z,15.38
2022-12-03T03:00:36.029Z,14.60
2022-12-03T03:03:04.983Z,14.98
2022-12-03T03:05:32.616Z,14.48
2022-12-03T03:08:00.594Z,15.57
2022-12-03T03:10:29.202Z,15.55
2022-12-03T03:12:56.308Z,14.80
2022-12-03T03:15:23.689Z,15.05
2022-12-03T03:17:50.333Z,16.00
2022-12-03T03:20:17.275Z,14.93
2022-12-03T03:22:43.698Z,14.98
2022-12-03T03:25:15.214Z,15.40
2022-12-03T03:27:41.848Z,15.18
2022-12-03T03:30:09.996Z,15.82
2022-12-03T03:32:38.281Z,16.08
2022-12-03T03:35:05.695Z,15.90
2022-12-03T03:37:32.283Z,15.18
2022-12-03T03:39:58.716Z,15.63
2022-12-03T03:42:25.316Z,15.65
2022-12-03T03:44:52.326Z,15.38
2022-12-03T03:47:20.029Z,15.40
2022-12-03T03:49:48.014Z,15.38
2022-12-03T03:52:14.675Z,14.95
2022-12-03T03:54:41.034Z,16.40
2022-12-03T03:57:07.455Z,16.65
2022-12-03T03:59:33.808Z,17.10
2022-12-03T04:02:00.207Z,15.93
2022-12-03T04:04:28.556Z,15.55
2022-12-03T04:06:54.933Z,15.90
2022-12-03T04:09:21.288Z,16.52
2022-12-03T04:12:06.328Z,15.65
2022-12-03T04:14:32.685Z,16.08
2022-12-03T04:16:59.137Z,15.10
2022-12-03T04:19:25.489Z,15.52
2022-12-03T04:22:10.435Z,16.05
2022-12-03T04:24:36.908Z,15.35
2022-12-03T04:27:21.756Z,15.55
2022-12-03T04:29:48.107Z,16.67
2022-12-03T04:32:33.155Z,16.48
2022-12-03T04:35:17.936Z,16.38
2022-12-03T04:37:44.299Z,15.68
2022-12-03T04:40:30.866Z,15.85
2022-12-03T04:42:57.196Z,15.70
2022-12-03T04:45:23.524Z,15.70
2022-12-03T04:47:49.908Z,15.32
2022-12-03T04:50:16.347Z,16.42
2022-12-03T04:52:42.666Z,16.42
2022-12-03T04:55:09.152Z,15.88
2022-12-03T04:57:35.550Z,16.05
2022-12-03T05:00:02.437Z,15.95
2022-12-03T05:02:28.810Z,16.60
2022-12-03T05:04:55.482Z,16.88
2022-12-03T05:07:22.025Z,15.77
2022-12-03T05:09:48.372Z,17.27
2022-12-03T05:12:14.660Z,16.60
2022-12-03T05:14:41.085Z,16.80
2022-12-03T05:17:07.512Z,16.63
2022-12-03T05:19:52.464Z,16.40
2022-12-03T05:22:18.780Z,16.60
2022-12-03T05:24:45.127Z,17.25
2022-12-03T05:27:11.435Z,16.90
2022-12-03T05:29:37.780Z,15.70
2022-12-03T05:32:04.241Z,18.50
2022-12-03T05:34:30.573Z,16.75
2022-12-03T05:36:56.885Z,16.20
2022-12-03T05:39:23.193Z,16.77
2022-12-03T05:42:08.211Z,17.05
2022-12-03T05:44:34.524Z,16.95
2022-12-03T05:47:00.864Z,17.33
2022-12-03T05:49:27.183Z,17.92
2022-12-03T05:51:58.264Z,16.90
2022-12-03T05:54:25.137Z,16.73
2022-12-03T05:56:51.453Z,17.00
2022-12-03T05:59:17.777Z,16.85
2022-12-03T06:01:44.162Z,17.77
2022-12-03T06:04:10.544Z,16.02
2022-12-03T06:06:36.865Z,16.17
2022-12-03T06:09:03.573Z,16.83
2022-12-03T06:11:30.224Z,16.42
2022-12-03T06:13:56.539Z,17.38
2022-12-03T06:16:22.949Z,17.13
2022-12-03T06:18:49.337Z,16.20
2022-12-03T06:21:15.703Z,16.63
2022-12-03T06:23:44.554Z,17.45
2022-12-03T06:26:12.261Z,16.30
2022-12-03T06:28:38.937Z,17.83
2022-12-03T06:31:05.825Z,16.23
2022-12-03T06:33:32.216Z,17.35
2022-12-03T06:35:58.524Z,17.90
2022-12-03T06:38:24.825Z,17.85
2022-12-03T06:40:51.135Z,17.67
2022-12-03T06:43:17.628Z,18.08
2022-12-03T06:45:47.715Z,17.42
2022-12-03T06:48:14.623Z,17.45
2022-12-03T06:50:40.971Z,18.67
2022-12-03T06:53:07.401Z,18.20
2022-12-03T06:55:33.719Z,17.10
2022-12-03T06:58:00.024Z,17.33
2022-12-03T07:00:26.445Z,17.23
2022-12-03T07:02:59.328Z,17.25
2022-12-03T07:05:25.722Z,17.95
2022-12-03T07:07:55.184Z,17.88
2022-12-03T07:10:22.000Z,17.33
2022-12-03T07:12:48.344Z,17.20
2022-12-03T07:15:14.891Z,18.38
2022-12-03T07:17:41.257Z,17.67
2022-12-03T07:20:08.474Z,17.00
2022-12-03T07:22:34.790Z,17.70
2022-12-03T07:25:01.161Z,16.92
2022-12-03T07:27:27.584Z,17.75
2022-12-03T07:29:54.005Z,17.17
2022-12-03T07:32:20.318Z,18.00
2022-12-03T07:34:46.638Z,16.73
2022-12-03T07:37:13.077Z,17.48
2022-12-03T07:39:39.393Z,17.42
2022-12-03T07:42:05.816Z,17.02
2022-12-03T07:44:32.132Z,17.08
2022-12-03T07:46:59.212Z,18.17
2022-12-03T07:49:26.633Z,17.40
2022-12-03T07:51:56.963Z,18.35
2022-12-03T07:54:24.483Z,18.10
2022-12-03T07:56:50.822Z,17.70
2022-12-03T07:59:17.658Z,18.27
2022-12-03T08:01:44.244Z,17.52
2022-12-03T08:04:12.848Z,17.85
2022-12-03T08:06:39.208Z,17.45
2022-12-03T08:09:05.509Z,17.67
2022-12-03T08:11:32.964Z,17.85
2022-12-03T08:13:59.552Z,17.67
2022-12-03T08:16:26.021Z,18.67
2022-12-03T08:18:54.826Z,17.45
2022-12-03T08:21:25.412Z,18.70
2022-12-03T08:23:51.754Z,17.52
2022-12-03T08:26:27.924Z,17.83
2022-12-03T08:28:54.512Z,17.92
2022-12-03T08:31:27.993Z,17.38
2022-12-03T08:34:12.626Z,17.15
2022-12-03T08:36:39.237Z,17.25
2022-12-03T08:39:14.638Z,18.23
2022-12-03T08:41:59.888Z,17.85
2022-12-03T08:44:36.604Z,17.80
2022-12-03T08:47:19.362Z,17.42
2022-12-03T08:49:57.920Z,17.85
2022-12-03T08:52:31.428Z,17.23
2022-12-03T08:54:57.909Z,17.85
2022-12-03T08:57:33.004Z,18.95
2022-12-03T09:00:22.881Z,16.98
2022-12-03T09:02:54.887Z,17.15
2022-12-03T09:05:39.117Z,17.40
2022-12-03T09:08:05.513Z,17.83
2022-12-03T09:10:31.954Z,17.60
2022-12-03T09:12:58.341Z,17.20
2022-12-03T09:15:24.652Z,17.48
2022-12-03T09:17:50.991Z,17.60
2022-12-03T09:20:17.335Z,17.05
2022-12-03T09:22:43.750Z,18.17
2022-12-03T09:25:13.828Z,17.73
2022-12-03T09:27:40.256Z,17.27
2022-12-03T09:30:07.194Z,16.02
2022-12-03T09:32:34.412Z,16.60
2022-12-03T09:35:00.757Z,17.15
2022-12-03T09:37:27.082Z,17.17
2022-12-03T09:39:53.398Z,17.55
2022-12-03T09:42:19.816Z,17.83
2022-12-03T09:44:46.245Z,18.50
2022-12-03T09:47:13.118Z,18.35
2022-12-03T09:49:39.994Z,16.83
2022-12-03T09:52:07.410Z,16.55
2022-12-03T09:54:34.431Z,15.65
2022-12-03T09:57:02.547Z,15.63
2022-12-03T09:59:34.196Z,16.55
2022-12-03T10:02:02.882Z,15.45
2022-12-03T10:04:30.063Z,15.98
2022-12-03T10:06:58.478Z,16.40
2022-12-03T10:09:27.858Z,14.88
2022-12-03T10:11:56.216Z,15.23
2022-12-03T10:14:22.749Z,14.30
2022-12-03T10:16:49.602Z,14.95
2022-12-03T10:19:22.533Z,15.00
2022-12-03T10:21:49.060Z,15.30
2022-12-03T10:24:24.133Z,15.30
2022-12-03T10:26:52.860Z,15.43
2022-12-03T10:29:33.496Z,14.50
2022-12-03T10:32:06.677Z,14.00
2022-12-03T10:34:38.183Z,15.48
2022-12-03T10:37:16.504Z,15.57
2022-12-03T10:39:56.595Z,16.00
2022-12-03T10:42:25.249Z,14.85
2022-12-03T10:45:22.790Z,15.82
2022-12-03T10:48:17.647Z,15.25
2022-12-03T10:50:48.635Z,15.68
2022-12-03T10:53:15.645Z,16.35
2022-12-03T10:55:43.689Z,16.20
2022-12-03T10:58:23.227Z,15.73
2022-12-03T11:00:52.329Z,16.15
2022-12-03T11:03:22.025Z,16.65
2022-12-03T11:05:49.228Z,15.77
2022-12-03T11:08:18.462Z,15.85
2022-12-03T11:10:45.643Z,16.20
2022-12-03T11:13:32.227Z,16.38
2022-12-03T11:16:00.053Z,16.23
2022-12-03T11:18:38.606Z,16.00
2022-12-03T11:21:12.032Z,16.52
2022-12-03T11:23:58.579Z,17.17
2022-12-03T11:26:27.964Z,17.27
2022-12-03T11:28:55.607Z,15.70
2022-12-03T11:31:39.413Z,16.58
2022-12-03T11:34:34.926Z,16.70
2022-12-03T11:37:10.311Z,15.52
2022-12-03T11:39:52.753Z,16.67
2022-12-03T11:42:25.587Z,15.45
2022-12-03T11:45:04.332Z,16.10
2022-12-03T11:47:42.326Z,16.52
2022-12-03T11:50:33.605Z,16.67
2022-12-03T11:53:15.277Z,16.80
2022-12-03T11:56:02.881Z,16.70
2022-12-03T11:58:30.798Z,16.73
2022-12-03T12:01:00.177Z,15.25
2022-12-03T12:03:30.145Z,14.80
2022-12-03T12:06:15.698Z,17.15
2022-12-03T12:08:56.999Z,15.70
2022-12-03T12:11:27.318Z,17.02
2022-12-03T12:13:55.451Z,16.38
2022-12-03T12:16:43.040Z,15.90
2022-12-03T12:19:42.715Z,16.13
2022-12-03T12:22:27.316Z,15.90
2022-12-03T12:24:59.510Z,15.55
2022-12-03T12:27:34.273Z,17.20
2022-12-03T12:30:14.231Z,17.88
2022-12-03T12:32:52.271Z,17.73
2022-12-03T12:35:21.294Z,16.85
2022-12-03T12:37:59.618Z,17.10
2022-12-03T12:40:28.725Z,17.00
2022-12-03T12:43:13.218Z,17.58
2022-12-03T12:45:43.367Z,16.38
2022-12-03T12:48:09.641Z,16.67
2022-12-03T12:50:52.106Z,17.10
2022-12-03T12:53:24.211Z,16.15
2022-12-03T12:56:30.176Z,15.85
2022-12-03T12:59:11.561Z,15.55
2022-12-03T13:01:38.968Z,16.08
2022-12-03T13:07:11.473Z,17.33
2022-12-03T13:09:39.509Z,15.35
2022-12-03T13:12:17.537Z,15.90
2022-12-03T13:14:44.228Z,16.52
2022-12-03T13:17:16.126Z,16.08
2022-12-03T13:19:48.245Z,15.50
2022-12-03T13:22:21.089Z,17.25
2022-12-03T13:24:52.756Z,16.27
2022-12-03T13:27:31.243Z,16.92
2022-12-03T13:30:03.250Z,15.70
2022-12-03T13:32:36.111Z,15.80
2022-12-03T13:35:13.638Z,16.77
2022-12-03T13:37:39.947Z,17.30
2022-12-03T13:40:18.981Z,17.52
2022-12-03T13:42:46.484Z,16.38
2022-12-03T13:45:15.923Z,16.70
2022-12-03T13:47:58.559Z,18.63
2022-12-03T13:50:43.896Z,17.27
2022-12-03T13:53:22.476Z,17.88
2022-12-03T13:55:57.791Z,17.70
2022-12-03T13:58:24.199Z,18.25
2022-12-03T14:00:51.039Z,18.25
2022-12-03T14:03:17.546Z,17.85
2022-12-03T14:05:43.854Z,18.45
2022-12-03T14:08:10.463Z,18.95
2022-12-03T14:10:36.835Z,18.05
2022-12-03T14:13:06.242Z,19.50
2022-12-03T14:15:32.595Z,19.67
2022-12-03T14:17:58.955Z,20.10
2022-12-03T14:20:25.564Z,19.63
2022-12-03T14:22:56.399Z,19.67
2022-12-03T14:25:25.616Z,20.10
2022-12-03T14:27:52.095Z,20.42
2022-12-03T14:30:18.539Z,19.58
2022-12-03T14:32:44.998Z,20.08
2022-12-03T14:35:11.396Z,20.02
2022-12-03T14:37:37.774Z,20.35
2022-12-03T14:40:07.009Z,20.52
2022-12-03T14:42:33.321Z,20.08
2022-12-03T14:44:59.650Z,20.27
2022-12-03T14:47:26.014Z,19.92
2022-12-03T14:49:52.983Z,20.50
2022-12-03T14:52:19.993Z,21.65
2022-12-03T14:54:46.394Z,22.42
2022-12-03T14:57:14.235Z,21.63
2022-12-03T14:59:44.524Z,20.75
2022-12-03T15:02:11.970Z,21.45
2022-12-03T15:04:39.605Z,21.33
2022-12-03T15:07:06.681Z,21.15
2022-12-03T15:09:33.269Z,21.40
2022-12-03T15:11:59.995Z,21.52
2022-12-03T15:14:26.597Z,21.15
2022-12-03T15:16:53.005Z,21.23
2022-12-03T15:19:19.505Z,21.30
2022-12-03T15:21:45.824Z,21.20
2022-12-03T15:24:12.346Z,22.05
2022-12-03T15:26:38.691Z,21.08
2022-12-03T15:29:05.088Z,21.33
2022-12-03T15:31:31.495Z,22.38
2022-12-03T15:33:57.927Z,21.85
2022-12-03T15:36:24.360Z,21.83
2022-12-03T15:38:50.693Z,21.10
2022-12-03T15:41:29.509Z,21.35
2022-12-03T15:43:58.378Z,20.70
2022-12-03T15:46:25.408Z,21.13
2022-12-03T15:48:52.024Z,21.38
2022-12-03T15:51:19.027Z,21.90
2022-12-03T15:53:45.553Z,21.08
2022-12-03T15:56:12.048Z,20.02
2022-12-03T15:58:39.819Z,20.60
2022-12-03T16:01:07.099Z,21.23
2022-12-03T16:03:33.565Z,21.45
2022-12-03T16:06:00.000Z,22.48
2022-12-03T16:08:26.878Z,20.55
2022-12-03T16:10:53.614Z,21.67
2022-12-03T16:13:19.952Z,21.05
2022-12-03T16:15:46.328Z,21.30
2022-12-03T16:18:12.661Z,22.45
2022-12-03T16:20:39.016Z,21.27
2022-12-03T16:23:05.434Z,21.40
2022-12-03T16:25:31.875Z,20.88
2022-12-03T16:27:58.320Z,22.73
2022-12-03T16:30:24.820Z,21.35
2022-12-03T16:32:51.240Z,21.45
2022-12-03T16:35:17.714Z,21.80
2022-12-03T16:37:44.478Z,22.25
2022-12-03T16:40:11.568Z,20.40
2022-12-03T16:42:37.959Z,21.30
2022-12-03T16:45:04.647Z,21.40
2022-12-03T16:47:34.150Z,22.05
2022-12-03T16:50:02.419Z,21.95
2022-12-03T16:52:28.784Z,22.27
2022-12-03T16:54:55.122Z,24.38
2022-12-03T16:57:21.437Z,22.20
2022-12-03T16:59:47.768Z,21.77
2022-12-03T17:02:14.263Z,20.50
2022-12-03T17:04:40.746Z,21.67
2022-12-03T17:07:07.150Z,21.50
2022-12-03T17:09:33.495Z,21.50
2022-12-03T17:11:59.915Z,21.38
2022-12-03T17:14:31.442Z,22.23
2022-12-03T17:17:17.323Z,22.05
2022-12-03T17:19:43.947Z,23.77
2022-12-03T17:22:10.405Z,21.65
2022-12-03T17:24:36.812Z,21.10
2022-12-03T17:27:06.192Z,20.45
2022-12-03T17:29:32.619Z,22.27
2022-12-03T17:31:59.106Z,22.05
2022-12-03T17:34:25.488Z,22.63
2022-12-03T17:36:51.905Z,21.55
2022-12-03T17:39:18.364Z,22.40
2022-12-03T17:41:44.801Z,23.35
2022-12-03T17:44:15.080Z,21.65
2022-12-03T17:46:44.373Z,23.80
2022-12-03T17:49:10.878Z,22.30
2022-12-03T17:51:37.220Z,22.42
2022-12-03T17:54:03.780Z,21.92
2022-12-03T17:56:30.297Z,22.55
2022-12-03T17:58:57.069Z,21.25
2022-12-03T18:01:23.555Z,20.95
2022-12-03T18:03:50.049Z,21.27
2022-12-03T18:06:16.437Z,23.58
2022-12-03T18:08:42.848Z,23.13
2022-12-03T18:11:09.209Z,22.63
2022-12-03T18:13:35.538Z,21.27
2022-12-03T18:16:01.980Z,22.13
2022-12-03T18:18:28.376Z,21.42
2022-12-03T18:20:54.771Z,22.35
2022-12-03T18:23:21.250Z,22.15
2022-12-03T18:25:47.634Z,21.15
2022-12-03T18:28:13.973Z,21.88
2022-12-03T18:30:40.327Z,21.90
2022-12-03T18:33:06.773Z,20.60
2022-12-03T18:35:33.302Z,22.33
2022-12-03T18:37:59.677Z,21.30
2022-12-03T18:40:27.088Z,21.88
2022-12-03T18:42:53.571Z,21.30
2022-12-03T18:45:19.907Z,20.58
2022-12-03T18:47:46.389Z,21.23
2022-12-03T18:50:13.845Z,20.90
2022-12-03T18:52:40.248Z,20.33
2022-12-03T18:55:07.397Z,20.77
2022-12-03T18:57:33.792Z,21.60
2022-12-03T19:00:00.194Z,22.85
2022-12-03T19:03:01.126Z,21.23
2022-12-03T19:05:13.070Z,20.30
2022-12-03T19:07:39.519Z,20.45
2022-12-03T19:10:06.731Z,21.40
2022-12-03T19:12:33.355Z,20.33
2022-12-03T19:14:59.742Z,20.90
2022-12-03T19:17:27.178Z,20.73
2022-12-03T19:19:54.167Z,21.30
2022-12-03T19:22:20.759Z,20.33
2022-12-03T19:24:47.098Z,20.23
2022-12-03T19:27:13.471Z,21.45
2022-12-03T19:29:39.910Z,21.98
2022-12-03T19:32:06.578Z,21.02
2022-12-03T19:34:33.100Z,19.77
2022-12-03T19:36:59.441Z,21.58
2022-12-03T19:39:25.959Z,20.20
2022-12-03T19:41:52.392Z,21.35
2022-12-03T19:44:19.409Z,20.75
2022-12-03T19:46:45.920Z,20.70
2022-12-03T19:49:12.534Z,21.35
2022-12-03T19:51:38.969Z,21.35
2022-12-03T19:54:07.258Z,20.63
2022-12-03T19:56:34.432Z,20.50
2022-12-03T19:59:00.974Z,21.90
2022-12-03T20:01:30.840Z,19.35
2022-12-03T20:04:04.760Z,20.38
2022-12-03T20:06:33.673Z,20.23
2022-12-03T20:09:11.993Z,19.60
2022-12-03T20:11:40.260Z,20.02
2022-12-03T20:14:12.682Z,20.60
2022-12-03T20:16:39.291Z,20.45
2022-12-03T20:19:07.978Z,21.25
2022-12-03T20:21:36.870Z,19.27
2022-12-03T20:24:03.896Z,20.10
2022-12-03T20:26:30.331Z,18.88
2022-12-03T20:28:57.649Z,19.13
2022-12-03T20:31:27.309Z,19.63
2022-12-03T20:33:58.152Z,20.98
2022-12-03T20:36:25.493Z,20.70
2022-12-03T20:38:57.243Z,19.73
2022-12-03T20:41:24.579Z,19.13
2022-12-03T20:43:51.582Z,19.67
2022-12-03T20:46:26.787Z,19.75
2022-12-03T20:48:54.351Z,20.05
2022-12-03T20:51:23.276Z,19.17
2022-12-03T20:53:49.938Z,18.73
2022-12-03T20:56:22.432Z,18.60
2022-12-03T20:58:50.006Z,18.40
2022-12-03T21:01:19.689Z,19.60
2022-12-03T21:03:47.335Z,19.52
2022-12-03T21:06:14.925Z,19.27
2022-12-03T21:08:42.766Z,19.77
2022-12-03T21:11:15.188Z,19.70
2022-12-03T21:13:43.500Z,19.23
2022-12-03T21:16:13.665Z,17.77
2022-12-03T21:18:40.704Z,18.13
2022-12-03T21:21:08.483Z,18.52
2022-12-03T21:23:35.715Z,20.20
2022-12-03T21:26:10.379Z,20.67
2022-12-03T21:28:38.711Z,20.20
2022-12-03T21:31:10.969Z,20.15
2022-12-03T21:33:38.241Z,19.65
2022-12-03T21:36:05.839Z,20.35
2022-12-03T21:38:34.056Z,20.52
2022-12-03T21:41:00.970Z,19.83
2022-12-03T21:43:27.799Z,19.00
2022-12-03T21:45:54.696Z,18.70
2022-12-03T21:48:21.872Z,19.58
2022-12-03T21:51:01.919Z,19.02
2022-12-03T21:53:28.630Z,19.85
2022-12-03T21:55:54.962Z,19.52
2022-12-03T21:58:21.417Z,19.88
2022-12-03T22:00:47.869Z,19.15
2022-12-03T22:03:14.316Z,19.25
2022-12-03T22:05:40.691Z,19.10
2022-12-03T22:08:10.040Z,18.83
2022-12-03T22:10:36.735Z,19.10
2022-12-03T22:13:03.062Z,18.30
2022-12-03T22:15:29.406Z,20.05
2022-12-03T22:17:55.783Z,19.10
2022-12-03T22:20:22.122Z,19.70
2022-12-03T22:22:48.466Z,19.77
2022-12-03T22:25:15.027Z,19.00
2022-12-03T22:27:41.361Z,18.80
2022-12-03T22:30:08.557Z,18.92
2022-12-03T22:32:35.784Z,19.48
2022-12-03T22:35:02.109Z,17.67
2022-12-03T22:37:28.441Z,18.85
2022-12-03T22:39:55.021Z,19.95
2022-12-03T22:42:21.489Z,18.63
2022-12-03T22:44:47.806Z,19.23
2022-12-03T22:47:14.178Z,19.75
2022-12-03T22:49:40.505Z,18.27
2022-12-03T22:52:07.552Z,19.65
2022-12-03T22:54:33.902Z,19.23
2022-12-03T22:57:00.381Z,19.65
2022-12-03T22:59:26.692Z,18.25
2022-12-03T23:01:53.063Z,18.75
2022-12-03T23:04:19.551Z,19.13
2022-12-03T23:06:46.216Z,18.83
2022-12-03T23:09:12.677Z,19.48
2022-12-03T23:11:39.158Z,18.55
2022-12-03T23:14:05.539Z,19.20
2022-12-03T23:16:33.051Z,20.20
2022-12-03T23:19:01.116Z,19.13
2022-12-03T23:21:30.945Z,20.48
2022-12-03T23:23:58.994Z,19.17
2022-12-03T23:26:25.399Z,18.77
2022-12-03T23:28:51.785Z,19.08
2022-12-03T23:31:24.406Z,20.45
2022-12-03T23:33:52.130Z,20.85
2022-12-03T23:36:19.507Z,20.13
2022-12-03T23:38:45.978Z,21.20
2022-12-03T23:41:18.405Z,19.85
2022-12-03T23:43:44.942Z,19.40
2022-12-03T23:46:14.661Z,19.98
2022-12-03T23:48:41.825Z,21.95
2022-12-03T23:51:10.426Z,20.30
2022-12-03T23:53:38.017Z,20.77
2022-12-03T23:56:12.822Z,20.77
2022-12-03T23:58:39.667Z,20.60
